Time,TemperatureF,DewpointF,PressureIn,WindDirection,WindDirectionDegrees,WindSpeedMPH,WindSpeedGustMPH,Humidity,HourlyPrecipIn,Conditions,Clouds,dailyrainin,SolarRadiationWatts/m^2,SoftwareType,DateUTC
2013-02-26 00:01:00,35.7,34.4,30.30,NE,55,7.9,8.1,95,0.00,RA,,0.00,0.0,WeatherDisplay:10.37,2013-02-25 23:01:00,
2013-02-26 00:06:00,35.7,34.1,30.30,East,82,5.0,10.4,94,0.00,RA,,0.00,0.0,WeatherDisplay:10.37,2013-02-25 23:06:00,
2013-02-26 00:11:00,35.7,34.1,30.30,ENE,65,7.6,13.0,94,0.00,RA,,0.00,0.0,WeatherDisplay:10.37,2013-02-25 23:11:00,
2013-02-26 00:16:00,35.8,34.2,30.30,ENE,70,5.1,10.4,94,0.00,RA,,0.00,0.0,WeatherDisplay:10.37,2013-02-25 23:16:00,
2013-02-26 00:21:00,35.8,34.2,30.31,ENE,70,5.4,9.2,94,0.00,RA,,0.00,0.0,WeatherDisplay:10.37,2013-02-25 23:21:00,
2013-02-26 00:26:00,35.8,34.2,30.31,ENE,72,5.9,9.2,94,0.00,OVC,,0.00,0.0,WeatherDisplay:10.37,2013-02-25 23:26:00,
2013-02-26 00:31:00,35.9,34.3,30.31,NE,56,6.6,11.5,94,0.00,OVC,,0.00,0.0,WeatherDisplay:10.37,2013-02-25 23:31:00,
2013-02-26 00:36:00,35.9,34.3,30.31,East,82,5.9,11.5,94,0.00,OVC,,0.00,0.0,WeatherDisplay:10.37,2013-02-25 23:36:00,
2013-02-26 00:41:00,35.9,34.3,30.31,ENE,65,8.9,13.8,94,0.00,OVC,,0.00,0.0,WeatherDisplay:10.37,2013-02-25 23:41:00,
2013-02-26 00:46:00,35.9,34.3,30.32,ENE,72,5.5,6.9,94,0.00,OVC,,0.00,0.0,WeatherDisplay:10.37,2013-02-25 23:46:00,
2013-02-26 00:51:00,35.9,34.3,30.32,ENE,70,4.0,11.0,94,0.00,OVC,,0.00,0.0,WeatherDisplay:10.37,2013-02-25 23:51:00,
2013-02-26 00:56:00,35.9,34.3,30.32,ENE,64,5.9,9.2,94,0.00,OVC,,0.00,0.0,WeatherDisplay:10.37,2013-02-25 23:56:00,
2013-02-26 01:01:00,36.0,34.4,30.32,ENE,63,5.7,8.1,94,0.00,OVC,,0.00,0.0,WeatherDisplay:10.37,2013-02-26 00:01:00,
2013-02-26 01:06:00,36.0,34.4,30.32,East,86,4.7,6.9,94,0.00,OVC,,0.00,0.0,WeatherDisplay:10.37,2013-02-26 00:06:00,
2013-02-26 01:11:00,36.0,34.4,30.32,ENE,61,7.0,10.4,94,0.00,OVC,,0.00,0.0,WeatherDisplay:10.37,2013-02-26 00:11:00,
2013-02-26 01:16:00,36.0,34.4,30.32,ENE,70,4.4,8.1,94,0.00,OVC,,0.00,0.0,WeatherDisplay:10.37,2013-02-26 00:16:00,
2013-02-26 01:21:00,36.0,34.4,30.32,NE,53,7.6,11.5,94,0.00,OVC,,0.00,0.0,WeatherDisplay:10.37,2013-02-26 00:21:00,
2013-02-26 01:26:00,36.0,34.4,30.33,ENE,66,5.7,10.4,94,0.00,OVC,,0.00,0.0,WeatherDisplay:10.37,2013-02-26 00:26:00,
2013-02-26 01:31:00,36.0,34.4,30.33,East,87,6.0,10.4,94,0.00,OVC,,0.00,0.0,WeatherDisplay:10.37,2013-02-26 00:31:00,
2013-02-26 01:36:00,36.1,34.5,30.33,East,85,7.9,12.7,94,0.00,OVC,,0.00,0.0,WeatherDisplay:10.37,2013-02-26 00:36:00,
2013-02-26 01:41:00,36.0,34.4,30.33,ENE,58,6.5,11.5,94,0.00,OVC,,0.00,0.0,WeatherDisplay:10.37,2013-02-26 00:41:00,
2013-02-26 01:46:00,36.1,34.5,30.33,ENE,74,5.1,8.1,94,0.00,OVC,,0.00,0.0,WeatherDisplay:10.37,2013-02-26 00:46:00,
2013-02-26 01:51:00,36.1,34.3,30.33,East,90,5.7,9.2,93,0.00,OVC,,0.00,0.0,WeatherDisplay:10.37,2013-02-26 00:51:00,
2013-02-26 01:56:00,36.1,34.3,30.33,NE,55,10.0,11.5,93,0.00,OVC,,0.00,0.0,WeatherDisplay:10.37,2013-02-26 00:56:00,
2013-02-26 02:01:00,36.1,34.3,30.33,ENE,69,2.8,5.8,93,0.00,OVC,,0.00,0.0,WeatherDisplay:10.37,2013-02-26 01:01:00,
2013-02-26 02:06:00,36.1,34.3,30.33,ENE,57,5.8,8.1,93,0.00,OVC,,0.00,0.0,WeatherDisplay:10.37,2013-02-26 01:06:00,
2013-02-26 02:11:00,36.1,34.3,30.33,NE,49,7.9,13.0,93,0.00,OVC,,0.00,0.0,WeatherDisplay:10.37,2013-02-26 01:11:00,
2013-02-26 02:16:00,36.1,34.3,30.34,East,86,5.9,8.1,93,0.00,OVC,,0.00,0.0,WeatherDisplay:10.37,2013-02-26 01:16:00,
2013-02-26 02:21:00,36.1,34.3,30.34,ENE,57,5.3,9.2,93,0.00,OVC,,0.00,0.0,WeatherDisplay:10.37,2013-02-26 01:21:00,
2013-02-26 02:26:00,36.1,34.3,30.34,ENE,59,6.8,10.4,93,0.00,OVC,,0.00,0.0,WeatherDisplay:10.37,2013-02-26 01:26:00,
2013-02-26 02:31:00,36.1,34.3,30.34,ENE,76,6.8,11.5,93,0.00,OVC,,0.00,0.0,WeatherDisplay:10.37,2013-02-26 01:31:00,
2013-02-26 02:36:00,36.1,34.3,30.34,ENE,64,6.3,10.4,93,0.00,OVC,,0.00,0.0,WeatherDisplay:10.37,2013-02-26 01:36:00,
2013-02-26 02:41:00,36.0,34.2,30.34,East,80,7.5,11.5,93,0.00,OVC,,0.00,0.0,WeatherDisplay:10.37,2013-02-26 01:41:00,
2013-02-26 02:46:00,36.1,34.5,30.34,ENE,77,5.5,9.2,94,0.00,OVC,,0.00,0.0,WeatherDisplay:10.37,2013-02-26 01:46:00,
2013-02-26 02:51:00,36.0,34.4,30.34,ENE,58,8.8,12.7,94,0.00,OVC,,0.00,0.0,WeatherDisplay:10.37,2013-02-26 01:51:00,
2013-02-26 02:56:00,36.1,34.5,30.34,ENE,78,5.1,6.0,94,0.00,OVC,,0.00,0.0,WeatherDisplay:10.37,2013-02-26 01:56:00,
2013-02-26 03:01:00,36.0,34.4,30.34,ENE,63,6.7,10.4,94,0.00,OVC,,0.00,0.0,WeatherDisplay:10.37,2013-02-26 02:01:00,
2013-02-26 03:06:00,36.0,34.4,30.34,ENE,75,8.8,14.0,94,0.00,OVC,,0.00,0.0,WeatherDisplay:10.37,2013-02-26 02:06:00,
2013-02-26 03:11:00,36.0,34.4,30.34,ENE,76,8.3,16.1,94,0.00,OVC,,0.00,0.0,WeatherDisplay:10.37,2013-02-26 02:11:00,
2013-02-26 03:16:00,36.0,34.4,30.34,East,84,8.7,11.5,94,0.00,OVC,,0.00,0.0,WeatherDisplay:10.37,2013-02-26 02:16:00,
2013-02-26 03:21:00,36.0,34.4,30.34,East,91,9.0,12.7,94,0.00,OVC,,0.00,0.0,WeatherDisplay:10.37,2013-02-26 02:21:00,
2013-02-26 03:26:00,36.0,34.4,30.34,ENE,78,9.0,12.0,94,0.00,OVC,,0.00,0.0,WeatherDisplay:10.37,2013-02-26 02:26:00,
2013-02-26 03:31:00,35.9,34.3,30.34,ENE,73,2.8,3.5,94,0.00,OVC,,0.00,0.0,WeatherDisplay:10.37,2013-02-26 02:31:00,
2013-02-26 03:36:00,36.0,34.4,30.35,ENE,73,6.7,8.1,94,0.00,OVC,,0.00,0.0,WeatherDisplay:10.37,2013-02-26 02:36:00,
2013-02-26 03:41:00,36.0,34.4,30.34,East,88,5.7,9.2,94,0.00,OVC,,0.00,0.0,WeatherDisplay:10.37,2013-02-26 02:41:00,
2013-02-26 03:46:00,36.0,34.4,30.34,NE,42,5.8,10.4,94,0.00,OVC,,0.00,0.0,WeatherDisplay:10.37,2013-02-26 02:46:00,
2013-02-26 03:51:00,35.9,34.3,30.34,ENE,78,7.8,11.5,94,0.00,OVC,,0.00,0.0,WeatherDisplay:10.37,2013-02-26 02:51:00,
2013-02-26 03:56:00,35.9,34.3,30.34,ENE,71,5.9,10.4,94,0.00,OVC,,0.00,0.0,WeatherDisplay:10.37,2013-02-26 02:56:00,
2013-02-26 04:01:00,35.9,34.3,30.34,East,80,5.2,7.0,94,0.00,OVC,,0.00,0.0,WeatherDisplay:10.37,2013-02-26 03:01:00,
2013-02-26 04:06:00,35.9,34.3,30.34,ENE,77,8.9,11.5,94,0.00,OVC,,0.00,0.0,WeatherDisplay:10.37,2013-02-26 03:06:00,
2013-02-26 04:11:00,35.9,34.3,30.35,ENE,59,5.7,8.1,94,0.00,OVC,,0.00,0.0,WeatherDisplay:10.37,2013-02-26 03:11:00,
2013-02-26 04:16:00,35.9,34.3,30.35,ENE,74,3.3,4.6,94,0.00,OVC,,0.00,0.0,WeatherDisplay:10.37,2013-02-26 03:16:00,
2013-02-26 04:21:00,36.0,34.4,30.35,ENE,70,6.1,9.2,94,0.00,OVC,,0.00,0.0,WeatherDisplay:10.37,2013-02-26 03:21:00,
2013-02-26 04:26:00,35.9,34.3,30.36,ENE,75,5.9,8.1,94,0.00,OVC,,0.00,0.0,WeatherDisplay:10.37,2013-02-26 03:26:00,
2013-02-26 04:31:00,35.9,34.3,30.36,East,97,3.8,9.0,94,0.00,OVC,,0.00,0.0,WeatherDisplay:10.37,2013-02-26 03:31:00,
2013-02-26 04:36:00,35.9,34.3,30.36,East,95,5.0,9.0,94,0.00,OVC,,0.00,0.0,WeatherDisplay:10.37,2013-02-26 03:36:00,
2013-02-26 04:41:00,35.9,34.3,30.36,ENE,76,5.4,9.2,94,0.00,OVC,,0.00,0.0,WeatherDisplay:10.37,2013-02-26 03:41:00,
2013-02-26 04:46:00,35.9,34.3,30.36,ENE,67,4.6,10.4,94,0.00,OVC,,0.00,0.0,WeatherDisplay:10.37,2013-02-26 03:46:00,
2013-02-26 04:51:00,35.9,34.3,30.35,East,80,6.2,11.5,94,0.00,OVC,,0.00,0.0,WeatherDisplay:10.37,2013-02-26 03:51:00,
2013-02-26 04:56:00,35.9,34.3,30.36,ENE,75,7.6,10.0,94,0.00,OVC,,0.00,0.0,WeatherDisplay:10.37,2013-02-26 03:56:00,
2013-02-26 05:01:00,35.9,34.3,30.36,ESE,103,6.6,9.2,94,0.00,OVC,,0.00,0.0,WeatherDisplay:10.37,2013-02-26 04:01:00,
2013-02-26 05:06:00,35.9,34.3,30.36,East,82,3.3,5.8,94,0.00,OVC,,0.00,0.0,WeatherDisplay:10.37,2013-02-26 04:06:00,
2013-02-26 05:11:00,35.9,34.3,30.36,East,98,5.3,11.5,94,0.00,OVC,,0.00,0.0,WeatherDisplay:10.37,2013-02-26 04:11:00,
2013-02-26 05:16:00,35.9,34.3,30.36,East,88,5.4,9.2,94,0.00,OVC,,0.00,0.0,WeatherDisplay:10.37,2013-02-26 04:16:00,
2013-02-26 05:21:00,35.9,34.3,30.36,East,92,4.9,6.9,94,0.00,OVC,,0.00,0.0,WeatherDisplay:10.37,2013-02-26 04:21:00,
2013-02-26 05:26:00,35.9,34.3,30.36,East,87,4.9,11.5,94,0.00,OVC,,0.00,0.0,WeatherDisplay:10.37,2013-02-26 04:26:00,
2013-02-26 05:31:00,35.9,34.3,30.37,ENE,72,6.1,10.4,94,0.00,OVC,,0.00,0.0,WeatherDisplay:10.37,2013-02-26 04:31:00,
2013-02-26 05:36:00,35.9,34.3,30.36,East,90,4.9,6.9,94,0.00,OVC,,0.00,0.0,WeatherDisplay:10.37,2013-02-26 04:36:00,
2013-02-26 05:41:00,35.9,34.3,30.37,East,92,5.3,8.1,94,0.00,OVC,,0.00,0.0,WeatherDisplay:10.37,2013-02-26 04:41:00,
2013-02-26 05:46:00,35.9,34.3,30.37,East,82,6.2,8.1,94,0.00,OVC,,0.00,0.0,WeatherDisplay:10.37,2013-02-26 04:46:00,
2013-02-26 05:51:00,35.9,34.3,30.37,East,89,6.1,6.9,94,0.00,OVC,,0.00,0.0,WeatherDisplay:10.37,2013-02-26 04:51:00,
2013-02-26 05:56:00,35.9,34.3,30.37,East,86,5.8,6.9,94,0.00,OVC,,0.00,0.0,WeatherDisplay:10.37,2013-02-26 04:56:00,
2013-02-26 06:00:00,35.9,34.3,30.37,ENE,67,6.0,6.9,94,0.00,OVC,,0.00,0.0,WeatherDisplay:10.37,2013-02-26 05:00:00,
2013-02-26 06:05:00,36.0,34.4,30.37,East,82,4.2,6.9,94,0.00,OVC,,0.00,0.0,WeatherDisplay:10.37,2013-02-26 05:05:00,
2013-02-26 06:10:00,36.0,34.4,30.38,East,80,3.3,5.0,94,0.00,OVC,,0.00,0.0,WeatherDisplay:10.37,2013-02-26 05:10:00,
2013-02-26 06:15:00,36.0,34.4,30.38,East,89,3.4,4.6,94,0.00,OVC,,0.00,0.0,WeatherDisplay:10.37,2013-02-26 05:15:00,
2013-02-26 06:20:00,36.1,34.5,30.38,East,80,4.2,5.8,94,0.00,OVC,,0.00,0.0,WeatherDisplay:10.37,2013-02-26 05:20:00,
2013-02-26 06:25:00,36.0,34.4,30.39,East,90,6.0,8.1,94,0.00,OVC,,0.00,0.0,WeatherDisplay:10.37,2013-02-26 05:25:00,
2013-02-26 06:30:00,36.0,34.4,30.39,ENE,61,5.2,8.1,94,0.00,OVC,,0.00,0.0,WeatherDisplay:10.37,2013-02-26 05:30:00,
2013-02-26 06:35:00,36.0,34.4,30.39,ENE,60,5.9,10.4,94,0.00,OVC,,0.00,0.0,WeatherDisplay:10.37,2013-02-26 05:35:00,
2013-02-26 06:40:00,36.0,34.4,30.38,ENE,65,4.1,11.0,94,0.00,OVC,,0.00,0.0,WeatherDisplay:10.37,2013-02-26 05:40:00,
2013-02-26 06:45:00,36.0,34.4,30.39,ENE,65,5.6,8.1,94,0.00,OVC,,0.00,0.0,WeatherDisplay:10.37,2013-02-26 05:45:00,
2013-02-26 06:50:00,36.1,34.5,30.39,ENE,77,5.6,6.9,94,0.00,OVC,,0.00,0.0,WeatherDisplay:10.37,2013-02-26 05:50:00,
2013-02-26 06:55:00,36.1,34.5,30.39,East,82,6.9,11.5,94,0.00,OVC,,0.00,0.0,WeatherDisplay:10.37,2013-02-26 05:55:00,
2013-02-26 07:00:00,36.1,34.5,30.39,ENE,71,6.8,12.7,94,0.00,OVC,,0.00,0.0,WeatherDisplay:10.37,2013-02-26 06:00:00,
2013-02-26 07:05:00,36.1,34.5,30.39,East,93,9.8,12.7,94,0.00,OVC,,0.00,0.0,WeatherDisplay:10.37,2013-02-26 06:05:00,
2013-02-26 07:10:00,36.1,34.3,30.40,ENE,73,6.5,8.1,93,0.00,OVC,,0.00,0.0,WeatherDisplay:10.37,2013-02-26 06:10:00,
2013-02-26 07:15:00,36.1,34.3,30.40,East,90,5.6,9.2,93,0.00,OVC,,0.00,0.0,WeatherDisplay:10.37,2013-02-26 06:15:00,
2013-02-26 07:20:00,36.1,34.3,30.40,ENE,72,6.4,9.2,93,0.00,OVC,,0.00,0.0,WeatherDisplay:10.37,2013-02-26 06:20:00,
2013-02-26 07:25:00,36.1,34.3,30.40,East,88,7.2,13.8,93,0.00,OVC,,0.00,0.0,WeatherDisplay:10.37,2013-02-26 06:25:00,
2013-02-26 07:30:00,36.1,34.3,30.40,East,97,6.5,9.2,93,0.00,OVC,,0.00,0.0,WeatherDisplay:10.37,2013-02-26 06:30:00,
2013-02-26 07:35:00,36.1,34.3,30.41,East,79,8.0,13.8,93,0.00,OVC,,0.00,0.0,WeatherDisplay:10.37,2013-02-26 06:35:00,
2013-02-26 07:40:00,36.1,34.3,30.41,East,85,6.1,10.4,93,0.00,OVC,,0.00,0.0,WeatherDisplay:10.37,2013-02-26 06:40:00,
2013-02-26 07:45:00,36.0,34.2,30.41,East,101,5.2,10.4,93,0.00,OVC,,0.00,0.0,WeatherDisplay:10.37,2013-02-26 06:45:00,
2013-02-26 07:50:00,36.0,34.2,30.41,ESE,107,6.8,9.2,93,0.00,OVC,,0.00,0.0,WeatherDisplay:10.37,2013-02-26 06:50:00,
2013-02-26 07:55:00,36.1,34.3,30.42,ENE,65,3.0,8.0,93,0.00,OVC,,0.00,0.0,WeatherDisplay:10.37,2013-02-26 06:55:00,
2013-02-26 08:00:00,36.0,34.2,30.42,ENE,77,6.8,13.8,93,0.00,OVC,,0.00,5.0,WeatherDisplay:10.37,2013-02-26 07:00:00,
2013-02-26 08:05:00,35.9,34.1,30.42,ESE,117,4.8,9.0,93,0.00,OVC,,0.00,5.0,WeatherDisplay:10.37,2013-02-26 07:05:00,
2013-02-26 08:10:00,36.0,34.2,30.42,East,92,6.0,8.1,93,0.00,OVC,,0.00,7.0,WeatherDisplay:10.37,2013-02-26 07:10:00,
2013-02-26 08:15:00,36.0,34.2,30.42,East,90,7.9,9.2,93,0.00,OVC,,0.00,9.0,WeatherDisplay:10.37,2013-02-26 07:15:00,
2013-02-26 08:20:00,36.0,33.9,30.42,East,86,4.3,6.0,92,0.00,OVC,,0.00,11.0,WeatherDisplay:10.37,2013-02-26 07:20:00,
2013-02-26 08:25:00,36.1,34.3,30.43,East,90,7.1,11.5,93,0.00,OVC,,0.00,12.0,WeatherDisplay:10.37,2013-02-26 07:25:00,
2013-02-26 08:30:00,36.0,34.2,30.43,East,83,7.1,9.2,93,0.00,OVC,,0.00,12.0,WeatherDisplay:10.37,2013-02-26 07:30:00,
2013-02-26 08:35:00,36.0,34.2,30.43,ENE,67,5.2,12.0,93,0.00,OVC,,0.00,14.0,WeatherDisplay:10.37,2013-02-26 07:35:00,
2013-02-26 08:40:00,36.0,33.9,30.43,ENE,72,5.2,8.1,92,0.00,OVC,,0.00,16.0,WeatherDisplay:10.37,2013-02-26 07:40:00,
2013-02-26 08:45:00,36.0,33.9,30.44,East,86,5.4,11.0,92,0.00,OVC,,0.00,18.0,WeatherDisplay:10.37,2013-02-26 07:45:00,
2013-02-26 08:50:00,36.1,34.0,30.44,ESE,113,7.9,13.0,92,0.00,OVC,,0.00,19.0,WeatherDisplay:10.37,2013-02-26 07:50:00,
2013-02-26 08:55:00,36.0,33.9,30.44,East,101,4.8,11.5,92,0.00,OVC,,0.00,19.0,WeatherDisplay:10.37,2013-02-26 07:55:00,
2013-02-26 09:00:00,35.9,33.8,30.44,ENE,73,6.7,11.5,92,0.00,OVC,,0.00,18.0,WeatherDisplay:10.37,2013-02-26 08:00:00,
2013-02-26 09:05:00,36.0,33.9,30.45,ESE,109,7.8,11.5,92,0.00,OVC,,0.00,21.0,WeatherDisplay:10.37,2013-02-26 08:05:00,
2013-02-26 09:10:00,36.0,34.2,30.45,East,97,5.7,11.5,93,0.00,OVC,,0.00,23.0,WeatherDisplay:10.37,2013-02-26 08:10:00,
2013-02-26 09:15:00,36.0,33.9,30.45,ESE,105,6.2,9.2,92,0.00,OVC,,0.00,26.0,WeatherDisplay:10.37,2013-02-26 08:15:00,
2013-02-26 09:20:00,36.0,34.2,30.45,ESE,110,7.9,11.5,93,0.00,OVC,,0.00,25.0,WeatherDisplay:10.37,2013-02-26 08:20:00,
2013-02-26 09:25:00,35.9,34.1,30.45,ESE,107,5.7,8.1,93,0.00,OVC,,0.00,25.0,WeatherDisplay:10.37,2013-02-26 08:25:00,
2013-02-26 09:30:00,36.0,34.2,30.45,ESE,108,3.8,8.0,93,0.00,OVC,,0.00,26.0,WeatherDisplay:10.37,2013-02-26 08:30:00,
2013-02-26 09:35:00,35.9,34.1,30.45,East,98,6.4,8.1,93,0.00,OVC,,0.00,33.0,WeatherDisplay:10.37,2013-02-26 08:35:00,
2013-02-26 09:40:00,35.9,33.8,30.45,East,86,3.5,4.6,92,0.00,OVC,,0.00,28.0,WeatherDisplay:10.37,2013-02-26 08:40:00,
2013-02-26 09:45:00,35.9,33.8,30.45,East,89,4.7,6.9,92,0.00,OVC,,0.00,30.0,WeatherDisplay:10.37,2013-02-26 08:45:00,
2013-02-26 09:50:00,36.0,33.9,30.45,East,86,4.8,6.9,92,0.00,OVC,,0.00,30.0,WeatherDisplay:10.37,2013-02-26 08:50:00,
2013-02-26 09:55:00,36.0,33.9,30.46,ENE,76,3.4,6.0,92,0.00,OVC,,0.00,39.0,WeatherDisplay:10.37,2013-02-26 08:55:00,
2013-02-26 10:00:00,36.0,34.2,30.46,East,97,7.1,9.2,93,0.00,OVC,,0.00,42.0,WeatherDisplay:10.37,2013-02-26 09:00:00,
2013-02-26 10:05:00,36.0,34.2,30.46,East,94,4.6,6.9,93,0.00,OVC,,0.00,44.0,WeatherDisplay:10.37,2013-02-26 09:05:00,
2013-02-26 10:10:00,36.0,34.2,30.46,East,86,5.7,8.1,93,0.00,OVC,,0.00,49.0,WeatherDisplay:10.37,2013-02-26 09:10:00,
2013-02-26 10:15:00,36.0,34.2,30.46,East,96,6.8,9.2,93,0.00,OVC,,0.00,53.0,WeatherDisplay:10.37,2013-02-26 09:15:00,
2013-02-26 10:20:00,36.1,34.3,30.46,ESE,115,5.7,6.9,93,0.00,OVC,,0.00,54.0,WeatherDisplay:10.37,2013-02-26 09:20:00,
2013-02-26 10:25:00,36.2,34.1,30.46,East,87,4.1,8.1,92,0.00,OVC,,0.00,69.0,WeatherDisplay:10.37,2013-02-26 09:25:00,
2013-02-26 10:30:00,36.1,34.0,30.46,ENE,68,3.2,6.9,92,0.00,OVC,,0.00,65.0,WeatherDisplay:10.37,2013-02-26 09:30:00,
2013-02-26 10:35:00,36.2,34.1,30.46,East,95,6.4,8.1,92,0.00,OVC,,0.00,74.0,WeatherDisplay:10.37,2013-02-26 09:35:00,
2013-02-26 10:40:00,36.3,34.2,30.46,East,79,4.1,5.8,92,0.00,OVC,,0.00,74.0,WeatherDisplay:10.37,2013-02-26 09:40:00,
2013-02-26 10:45:00,36.4,34.3,30.47,East,90,2.8,7.0,92,0.00,OVC,,0.00,74.0,WeatherDisplay:10.37,2013-02-26 09:45:00,
2013-02-26 10:50:00,36.5,34.4,30.46,East,99,5.0,8.0,92,0.00,OVC,,0.00,88.0,WeatherDisplay:10.37,2013-02-26 09:50:00,
2013-02-26 10:55:00,36.6,34.5,30.47,East,82,4.6,6.0,92,0.00,OVC,,0.00,93.0,WeatherDisplay:10.37,2013-02-26 09:55:00,
2013-02-26 11:00:00,36.7,34.6,30.47,East,89,4.8,8.0,92,0.00,OVC,,0.00,104.0,WeatherDisplay:10.37,2013-02-26 10:00:00,
2013-02-26 11:05:00,36.8,34.7,30.47,ENE,70,3.9,6.9,92,0.00,OVC,,0.00,97.0,WeatherDisplay:10.37,2013-02-26 10:05:00,
2013-02-26 11:10:00,36.9,34.5,30.47,East,85,3.1,4.6,91,0.00,OVC,,0.00,95.0,WeatherDisplay:10.37,2013-02-26 10:10:00,
2013-02-26 11:19:00,37.1,34.7,30.48,East,90,5.0,7.0,91,0.00,OVC,,0.00,81.0,WeatherDisplay:10.37,2013-02-26 10:19:00,
2013-02-26 11:24:00,37.2,34.8,30.48,East,99,5.4,8.1,91,0.00,OVC,,0.00,98.0,WeatherDisplay:10.37,2013-02-26 10:24:00,
2013-02-26 11:29:00,37.3,34.9,30.48,East,99,5.2,5.8,91,0.00,OVC,,0.00,93.0,WeatherDisplay:10.37,2013-02-26 10:29:00,
2013-02-26 11:34:00,37.5,35.1,30.48,East,98,3.6,8.1,91,0.00,OVC,,0.00,98.0,WeatherDisplay:10.37,2013-02-26 10:34:00,
2013-02-26 11:39:00,37.3,34.6,30.48,ENE,74,3.7,6.9,90,0.00,OVC,,0.00,107.0,WeatherDisplay:10.37,2013-02-26 10:39:00,
2013-02-26 11:44:00,37.4,34.7,30.48,ENE,77,3.5,5.8,90,0.00,OVC,,0.00,128.0,WeatherDisplay:10.37,2013-02-26 10:44:00,
2013-02-26 11:49:00,37.4,34.7,30.48,ENE,63,6.9,8.1,90,0.00,OVC,,0.00,109.0,WeatherDisplay:10.37,2013-02-26 10:49:00,
2013-02-26 11:54:00,37.3,34.6,30.48,ENE,63,4.3,8.1,90,0.00,OVC,,0.00,137.0,WeatherDisplay:10.37,2013-02-26 10:54:00,
2013-02-26 11:59:00,37.4,34.7,30.48,NE,55,3.5,5.8,90,0.00,OVC,,0.00,155.0,WeatherDisplay:10.37,2013-02-26 10:59:00,
2013-02-26 12:04:00,37.6,34.9,30.48,ENE,64,6.1,6.1,90,0.00,OVC,,0.00,139.0,WeatherDisplay:10.37,2013-02-26 11:04:00,
2013-02-26 12:09:00,37.7,35.0,30.48,East,94,6.1,6.9,90,0.00,OVC,,0.00,139.0,WeatherDisplay:10.37,2013-02-26 11:09:00,
2013-02-26 12:14:00,37.8,35.1,30.49,East,94,5.9,8.1,90,0.00,OVC,,0.00,135.0,WeatherDisplay:10.37,2013-02-26 11:14:00,
2013-02-26 12:19:00,37.6,34.6,30.49,NE,53,6.4,11.5,89,0.00,OVC,,0.00,151.0,WeatherDisplay:10.37,2013-02-26 11:19:00,
2013-02-26 12:24:00,37.5,34.5,30.48,NE,53,4.6,6.9,89,0.00,OVC,,0.00,167.0,WeatherDisplay:10.37,2013-02-26 11:24:00,
2013-02-26 12:29:00,37.6,34.6,30.48,ENE,65,5.3,8.1,89,0.00,OVC,,0.00,153.0,WeatherDisplay:10.37,2013-02-26 11:29:00,
2013-02-26 12:34:00,37.8,34.8,30.48,East,81,3.9,6.9,89,0.00,OVC,,0.00,137.0,WeatherDisplay:10.37,2013-02-26 11:34:00,
2013-02-26 12:39:00,37.7,34.7,30.48,ENE,61,4.8,10.0,89,0.00,OVC,,0.00,134.0,WeatherDisplay:10.37,2013-02-26 11:39:00,
2013-02-26 12:44:00,37.8,34.8,30.48,ENE,67,3.7,5.8,89,0.00,OVC,,0.00,120.0,WeatherDisplay:10.37,2013-02-26 11:44:00,
2013-02-26 12:49:00,37.9,34.9,30.48,ENE,71,4.5,8.1,89,0.00,OVC,,0.00,144.0,WeatherDisplay:10.37,2013-02-26 11:49:00,
2013-02-26 12:54:00,37.9,34.9,30.48,East,92,3.7,5.8,89,0.00,OVC,,0.00,135.0,WeatherDisplay:10.37,2013-02-26 11:54:00,
2013-02-26 12:59:00,38.0,35.0,30.48,ENE,75,5.0,6.9,89,0.00,OVC,,0.00,120.0,WeatherDisplay:10.37,2013-02-26 11:59:00,
2013-02-26 13:04:00,38.0,35.0,30.48,ENE,67,5.1,10.0,89,0.00,OVC,,0.00,120.0,WeatherDisplay:10.37,2013-02-26 12:04:00,
2013-02-26 13:09:00,37.8,34.8,30.48,NE,38,4.4,9.2,89,0.00,OVC,,0.00,144.0,WeatherDisplay:10.37,2013-02-26 12:09:00,
2013-02-26 13:14:00,37.8,34.8,30.48,NE,51,5.1,8.1,89,0.00,OVC,,0.00,230.0,WeatherDisplay:10.37,2013-02-26 12:14:00,
2013-02-26 13:19:00,38.0,35.3,30.47,NE,55,2.8,4.6,90,0.00,OVC,,0.00,390.0,WeatherDisplay:10.37,2013-02-26 12:19:00,
2013-02-26 13:24:00,38.3,35.6,30.47,NE,54,2.8,4.6,90,0.00,OVC,,0.00,183.0,WeatherDisplay:10.37,2013-02-26 12:24:00,
2013-02-26 13:29:00,38.4,35.4,30.47,NE,41,2.5,6.0,89,0.00,OVC,,0.00,251.0,WeatherDisplay:10.37,2013-02-26 12:29:00,
2013-02-26 13:34:00,38.7,35.7,30.47,NE,45,2.9,4.6,89,0.00,OVC,,0.00,279.0,WeatherDisplay:10.37,2013-02-26 12:34:00,
2013-02-26 13:39:00,39.1,36.1,30.47,East,94,5.4,11.5,89,0.00,OVC,,0.00,244.0,WeatherDisplay:10.37,2013-02-26 12:39:00,
2013-02-26 13:44:00,39.1,35.8,30.47,ENE,63,4.2,6.9,88,0.00,OVC,,0.00,316.0,WeatherDisplay:10.37,2013-02-26 12:44:00,
2013-02-26 13:49:00,39.3,36.0,30.47,ENE,65,4.5,6.9,88,0.00,OVC,,0.00,216.0,WeatherDisplay:10.37,2013-02-26 12:49:00,
2013-02-26 13:54:00,39.5,36.2,30.47,NE,52,4.5,4.6,88,0.00,OVC,,0.00,188.0,WeatherDisplay:10.37,2013-02-26 12:54:00,
2013-02-26 13:59:00,39.3,36.0,30.47,NE,53,0.0,3.5,88,0.00,OVC,,0.00,206.0,WeatherDisplay:10.37,2013-02-26 12:59:00,
2013-02-26 14:04:00,39.4,36.1,30.48,SE,124,4.9,11.0,88,0.00,OVC,,0.00,225.0,WeatherDisplay:10.37,2013-02-26 13:04:00,
2013-02-26 14:09:00,39.6,36.3,30.48,East,90,5.1,8.1,88,0.00,OVC,,0.00,128.0,WeatherDisplay:10.37,2013-02-26 13:09:00,
2013-02-26 14:14:00,39.5,36.2,30.47,NE,49,6.5,11.5,88,0.00,OVC,,0.00,153.0,WeatherDisplay:10.37,2013-02-26 13:14:00,
2013-02-26 14:19:00,39.5,36.2,30.48,NE,46,4.5,6.0,88,0.00,OVC,,0.00,211.0,WeatherDisplay:10.37,2013-02-26 13:19:00,
2013-02-26 14:24:00,39.4,36.1,30.47,NE,47,4.5,6.9,88,0.00,OVC,,0.00,206.0,WeatherDisplay:10.37,2013-02-26 13:24:00,
2013-02-26 14:29:00,39.6,36.3,30.47,ENE,59,4.8,6.9,88,0.00,OVC,,0.00,251.0,WeatherDisplay:10.37,2013-02-26 13:29:00,
2013-02-26 14:34:00,39.8,36.5,30.47,ENE,57,4.7,8.1,88,0.00,BKN,,0.00,197.0,WeatherDisplay:10.37,2013-02-26 13:34:00,
2013-02-26 14:39:00,39.6,36.0,30.47,NE,55,7.5,8.1,87,0.00,BKN,,0.00,274.0,WeatherDisplay:10.37,2013-02-26 13:39:00,
2013-02-26 14:44:00,39.5,35.9,30.47,ENE,72,4.9,6.9,87,0.00,BKN,,0.00,281.0,WeatherDisplay:10.37,2013-02-26 13:44:00,
2013-02-26 14:49:00,39.7,36.1,30.47,ENE,72,6.5,11.5,87,0.00,BKN,,0.00,422.0,WeatherDisplay:10.37,2013-02-26 13:49:00,
2013-02-26 14:54:00,40.1,36.8,30.47,NE,42,6.9,11.5,88,0.00,BKN,,0.00,225.0,WeatherDisplay:10.37,2013-02-26 13:54:00,
2013-02-26 14:59:00,40.2,36.6,30.47,East,90,5.0,7.0,87,0.00,BKN,,0.00,237.0,WeatherDisplay:10.37,2013-02-26 13:59:00,
2013-02-26 15:04:00,40.4,36.8,30.47,East,90,4.1,6.9,87,0.00,BKN,,0.00,244.0,WeatherDisplay:10.37,2013-02-26 14:04:00,
2013-02-26 15:09:00,40.4,36.8,30.47,East,86,3.4,6.0,87,0.00,BKN,,0.00,211.0,WeatherDisplay:10.37,2013-02-26 14:09:00,
2013-02-26 15:14:00,40.5,36.9,30.47,NE,47,5.5,7.0,87,0.00,BKN,,0.00,141.0,WeatherDisplay:10.37,2013-02-26 14:14:00,
2013-02-26 15:19:00,40.4,36.8,30.47,ENE,65,1.9,3.5,87,0.00,BKN,,0.00,97.0,WeatherDisplay:10.37,2013-02-26 14:19:00,
2013-02-26 15:24:00,40.5,36.9,30.47,East,83,4.4,6.0,87,0.00,BKN,,0.00,97.0,WeatherDisplay:10.37,2013-02-26 14:24:00,
2013-02-26 15:29:00,40.3,36.7,30.47,NE,45,7.5,11.5,87,0.00,BKN,,0.00,77.0,WeatherDisplay:10.37,2013-02-26 14:29:00,
2013-02-26 15:34:00,40.2,36.6,30.47,ENE,64,4.9,8.1,87,0.00,BKN,,0.00,70.0,WeatherDisplay:10.37,2013-02-26 14:34:00,
2013-02-26 15:39:00,40.2,36.6,30.47,ENE,67,4.1,4.6,87,0.00,BKN,,0.00,88.0,WeatherDisplay:10.37,2013-02-26 14:39:00,
2013-02-26 15:44:00,40.4,36.8,30.47,ENE,63,2.8,4.6,87,0.00,BKN,,0.00,81.0,WeatherDisplay:10.37,2013-02-26 14:44:00,
2013-02-26 15:49:00,40.5,36.9,30.47,ENE,62,3.9,4.6,87,0.00,BKN,,0.00,77.0,WeatherDisplay:10.37,2013-02-26 14:49:00,
2013-02-26 15:54:00,40.4,36.8,30.47,ENE,61,4.5,7.0,87,0.00,BKN,,0.00,65.0,WeatherDisplay:10.37,2013-02-26 14:54:00,
2013-02-26 15:59:00,40.1,36.5,30.47,NE,36,3.1,11.5,87,0.00,BKN,,0.00,83.0,WeatherDisplay:10.37,2013-02-26 14:59:00,
2013-02-26 16:04:00,40.1,36.5,30.47,ENE,58,4.8,8.1,87,0.00,BKN,,0.00,67.0,WeatherDisplay:10.37,2013-02-26 15:04:00,
2013-02-26 16:09:00,39.8,36.5,30.47,ENE,71,3.8,6.9,88,0.00,BKN,,0.00,70.0,WeatherDisplay:10.37,2013-02-26 15:09:00,
2013-02-26 16:14:00,39.7,36.4,30.47,ENE,63,5.5,7.0,88,0.00,BKN,,0.00,98.0,WeatherDisplay:10.37,2013-02-26 15:14:00,
2013-02-26 16:19:00,39.6,36.3,30.47,NE,53,4.9,5.8,88,0.00,BKN,,0.00,79.0,WeatherDisplay:10.37,2013-02-26 15:19:00,
2013-02-26 16:24:00,39.5,36.2,30.47,NE,55,4.4,6.9,88,0.00,BKN,,0.00,81.0,WeatherDisplay:10.37,2013-02-26 15:24:00,
2013-02-26 16:29:00,39.3,36.0,30.47,NE,55,5.5,8.1,88,0.00,BKN,,0.00,63.0,WeatherDisplay:10.37,2013-02-26 15:29:00,
2013-02-26 16:34:00,39.3,36.0,30.47,NNE,30,3.6,10.4,88,0.00,BKN,,0.00,60.0,WeatherDisplay:10.37,2013-02-26 15:34:00,
2013-02-26 16:39:00,39.2,36.2,30.47,ENE,65,4.6,11.5,89,0.00,BKN,,0.00,54.0,WeatherDisplay:10.37,2013-02-26 15:39:00,
2013-02-26 16:44:00,39.1,36.1,30.47,NNE,28,4.6,11.5,89,0.00,OVC,,0.00,51.0,WeatherDisplay:10.37,2013-02-26 15:44:00,
2013-02-26 16:49:00,39.1,36.1,30.47,NE,54,3.9,5.8,89,0.00,OVC,,0.00,40.0,WeatherDisplay:10.37,2013-02-26 15:49:00,
2013-02-26 16:54:00,38.8,35.8,30.47,NNE,29,4.0,4.6,89,0.00,OVC,,0.00,46.0,WeatherDisplay:10.37,2013-02-26 15:54:00,
2013-02-26 16:59:00,38.7,35.7,30.47,NE,42,2.7,4.6,89,0.00,OVC,,0.00,37.0,WeatherDisplay:10.37,2013-02-26 15:59:00,
2013-02-26 17:04:00,38.7,36.0,30.47,NE,49,3.5,10.4,90,0.00,OVC,,0.00,37.0,WeatherDisplay:10.37,2013-02-26 16:04:00,
2013-02-26 17:09:00,38.6,35.9,30.47,ENE,59,1.3,3.5,90,0.00,OVC,,0.00,32.0,WeatherDisplay:10.37,2013-02-26 16:09:00,
2013-02-26 17:14:00,38.6,35.9,30.47,NE,49,2.8,10.4,90,0.00,OVC,,0.00,26.0,WeatherDisplay:10.37,2013-02-26 16:14:00,
2013-02-26 17:19:00,38.6,35.9,30.47,NE,48,3.5,3.5,90,0.00,OVC,,0.00,23.0,WeatherDisplay:10.37,2013-02-26 16:19:00,
2013-02-26 17:24:00,38.6,35.9,30.48,ENE,60,4.4,8.1,90,0.00,OVC,,0.00,21.0,WeatherDisplay:10.37,2013-02-26 16:24:00,
2013-02-26 17:29:00,38.5,35.8,30.48,NE,44,3.1,6.9,90,0.00,OVC,,0.00,16.0,WeatherDisplay:10.37,2013-02-26 16:29:00,
2013-02-26 17:34:00,38.5,36.1,30.48,North,5,1.8,3.5,91,0.00,OVC,,0.00,14.0,WeatherDisplay:10.37,2013-02-26 16:34:00,
2013-02-26 17:39:00,38.6,36.2,30.48,ENE,59,2.1,3.5,91,0.00,OVC,,0.00,11.0,WeatherDisplay:10.37,2013-02-26 16:39:00,
2013-02-26 17:44:00,38.5,36.1,30.48,NE,56,5.3,6.9,91,0.00,OVC,,0.00,11.0,WeatherDisplay:10.37,2013-02-26 16:44:00,
2013-02-26 17:49:00,38.5,36.1,30.48,ENE,59,3.0,4.6,91,0.00,OVC,,0.00,9.0,WeatherDisplay:10.37,2013-02-26 16:49:00,
2013-02-26 17:54:00,38.5,36.1,30.48,ENE,60,4.2,8.1,91,0.00,OVC,,0.00,7.0,WeatherDisplay:10.37,2013-02-26 16:54:00,
2013-02-26 17:59:00,38.4,36.0,30.48,ENE,72,5.6,8.1,91,0.00,OVC,,0.00,5.0,WeatherDisplay:10.37,2013-02-26 16:59:00,
2013-02-26 18:04:00,38.4,36.0,30.48,NE,45,6.8,8.1,91,0.00,OVC,,0.00,0.0,WeatherDisplay:10.37,2013-02-26 17:04:00,
2013-02-26 18:11:00,38.4,36.0,30.48,NE,42,6.2,8.1,91,0.00,OVC,,0.00,0.0,WeatherDisplay:10.37,2013-02-26 17:11:00,
2013-02-26 18:16:00,38.4,36.0,30.48,NE,34,1.5,5.0,91,0.00,OVC,,0.00,0.0,WeatherDisplay:10.37,2013-02-26 17:16:00,
2013-02-26 18:21:00,38.3,35.9,30.48,NE,37,4.3,7.0,91,0.00,OVC,,0.00,0.0,WeatherDisplay:10.37,2013-02-26 17:21:00,
2013-02-26 18:26:00,38.3,35.9,30.49,NE,49,5.7,11.5,91,0.00,OVC,,0.00,0.0,WeatherDisplay:10.37,2013-02-26 17:26:00,
2013-02-26 18:31:00,38.3,35.9,30.48,NE,55,6.2,10.4,91,0.00,OVC,,0.00,0.0,WeatherDisplay:10.37,2013-02-26 17:31:00,
2013-02-26 18:36:00,38.3,35.9,30.48,ENE,57,3.4,6.0,91,0.00,OVC,,0.00,0.0,WeatherDisplay:10.37,2013-02-26 17:36:00,
2013-02-26 18:41:00,38.3,35.9,30.48,NE,51,2.9,4.0,91,0.00,OVC,,0.00,0.0,WeatherDisplay:10.37,2013-02-26 17:41:00,
2013-02-26 18:46:00,38.2,35.8,30.48,ENE,57,6.0,10.4,91,0.00,OVC,,0.00,0.0,WeatherDisplay:10.37,2013-02-26 17:46:00,
2013-02-26 18:51:00,38.3,35.9,30.48,ENE,59,5.7,10.4,91,0.00,OVC,,0.00,0.0,WeatherDisplay:10.37,2013-02-26 17:51:00,
2013-02-26 18:56:00,38.2,35.8,30.48,ENE,63,4.4,6.9,91,0.00,OVC,,0.00,0.0,WeatherDisplay:10.37,2013-02-26 17:56:00,
2013-02-26 19:01:00,38.2,35.8,30.48,NE,50,5.1,11.5,91,0.00,OVC,,0.00,0.0,WeatherDisplay:10.37,2013-02-26 18:01:00,
2013-02-26 19:06:00,38.3,35.9,30.49,ENE,76,7.5,11.5,91,0.00,OVC,,0.00,0.0,WeatherDisplay:10.37,2013-02-26 18:06:00,
2013-02-26 19:11:00,38.3,35.9,30.49,NE,55,2.5,3.5,91,0.00,OVC,,0.00,0.0,WeatherDisplay:10.37,2013-02-26 18:11:00,
2013-02-26 19:16:00,38.3,35.9,30.49,NNE,29,4.3,7.0,91,0.00,OVC,,0.00,0.0,WeatherDisplay:10.37,2013-02-26 18:16:00,
2013-02-26 19:21:00,38.4,36.0,30.49,ENE,59,6.2,10.0,91,0.00,OVC,,0.00,0.0,WeatherDisplay:10.37,2013-02-26 18:21:00,
2013-02-26 19:26:00,38.3,35.9,30.49,ENE,57,5.6,11.5,91,0.00,OVC,,0.00,0.0,WeatherDisplay:10.37,2013-02-26 18:26:00,
2013-02-26 19:31:00,38.4,36.0,30.49,ENE,63,6.4,10.4,91,0.00,OVC,,0.00,0.0,WeatherDisplay:10.37,2013-02-26 18:31:00,
2013-02-26 19:36:00,38.4,36.0,30.49,NE,56,4.0,5.0,91,0.00,OVC,,0.00,0.0,WeatherDisplay:10.37,2013-02-26 18:36:00,
2013-02-26 19:41:00,38.5,36.1,30.49,NE,47,2.5,5.0,91,0.00,OVC,,0.00,0.0,WeatherDisplay:10.37,2013-02-26 18:41:00,
2013-02-26 19:46:00,38.5,36.1,30.49,ENE,61,1.6,4.6,91,0.00,OVC,,0.00,0.0,WeatherDisplay:10.37,2013-02-26 18:46:00,
2013-02-26 19:51:00,38.5,36.1,30.49,ENE,57,4.5,6.9,91,0.00,OVC,,0.00,0.0,WeatherDisplay:10.37,2013-02-26 18:51:00,
2013-02-26 19:56:00,38.5,36.1,30.49,NNE,24,3.8,5.8,91,0.00,OVC,,0.00,0.0,WeatherDisplay:10.37,2013-02-26 18:56:00,
2013-02-26 20:01:00,38.5,36.1,30.49,NNE,31,1.4,3.5,91,0.00,OVC,,0.00,0.0,WeatherDisplay:10.37,2013-02-26 19:01:00,
2013-02-26 20:06:00,38.5,36.1,30.49,NNE,31,2.4,3.5,91,0.00,OVC,,0.00,0.0,WeatherDisplay:10.37,2013-02-26 19:06:00,
2013-02-26 20:11:00,38.5,36.1,30.49,NNE,31,3.3,5.0,91,0.00,OVC,,0.00,0.0,WeatherDisplay:10.37,2013-02-26 19:11:00,
2013-02-26 20:16:00,38.5,36.1,30.49,NNE,31,1.8,3.5,91,0.00,OVC,,0.00,0.0,WeatherDisplay:10.37,2013-02-26 19:16:00,
2013-02-26 20:21:00,38.4,36.0,30.49,NNE,30,4.1,5.8,91,0.00,OVC,,0.00,0.0,WeatherDisplay:10.37,2013-02-26 19:21:00,
2013-02-26 20:26:00,38.4,36.0,30.49,NE,51,4.3,5.8,91,0.00,OVC,,0.00,0.0,WeatherDisplay:10.37,2013-02-26 19:26:00,
2013-02-26 20:31:00,38.4,36.0,30.49,NE,51,2.8,4.6,91,0.00,OVC,,0.00,0.0,WeatherDisplay:10.37,2013-02-26 19:31:00,
2013-02-26 20:36:00,38.4,36.0,30.49,NE,43,2.1,4.0,91,0.00,OVC,,0.00,0.0,WeatherDisplay:10.37,2013-02-26 19:36:00,
2013-02-26 20:41:00,38.4,36.0,30.49,NNE,29,3.5,4.6,91,0.00,BKN,,0.00,0.0,WeatherDisplay:10.37,2013-02-26 19:41:00,
2013-02-26 20:46:00,38.4,36.0,30.49,NE,47,1.5,5.0,91,0.00,BKN,,0.00,0.0,WeatherDisplay:10.37,2013-02-26 19:46:00,
2013-02-26 20:51:00,38.4,36.0,30.49,NE,55,3.5,5.8,91,0.00,BKN,,0.00,0.0,WeatherDisplay:10.37,2013-02-26 19:51:00,
2013-02-26 20:56:00,38.3,35.9,30.49,NE,46,4.8,6.9,91,0.00,BKN,,0.00,0.0,WeatherDisplay:10.37,2013-02-26 19:56:00,
2013-02-26 21:01:00,38.2,35.8,30.49,NE,53,3.7,9.2,91,0.00,OVC,,0.00,0.0,WeatherDisplay:10.37,2013-02-26 20:01:00,
2013-02-26 21:06:00,38.2,35.8,30.50,ENE,57,2.2,3.5,91,0.00,OVC,,0.00,0.0,WeatherDisplay:10.37,2013-02-26 20:06:00,
2013-02-26 21:11:00,38.2,35.8,30.49,NE,45,4.7,8.1,91,0.00,OVC,,0.00,0.0,WeatherDisplay:10.37,2013-02-26 20:11:00,
2013-02-26 21:16:00,38.3,35.9,30.50,ENE,68,4.3,6.9,91,0.00,OVC,,0.00,0.0,WeatherDisplay:10.37,2013-02-26 20:16:00,
2013-02-26 21:21:00,38.2,35.8,30.50,NE,39,5.9,8.1,91,0.00,OVC,,0.00,0.0,WeatherDisplay:10.37,2013-02-26 20:21:00,
2013-02-26 21:26:00,38.2,35.8,30.50,NE,53,4.6,6.9,91,0.00,OVC,,0.00,0.0,WeatherDisplay:10.37,2013-02-26 20:26:00,
2013-02-26 21:31:00,38.2,35.8,30.50,NNE,27,3.2,9.2,91,0.00,OVC,,0.00,0.0,WeatherDisplay:10.37,2013-02-26 20:31:00,
2013-02-26 21:36:00,38.2,36.1,30.50,ENE,70,4.8,6.9,92,0.00,OVC,,0.00,0.0,WeatherDisplay:10.37,2013-02-26 20:36:00,
2013-02-26 21:41:00,38.1,36.0,30.50,ENE,76,5.4,7.0,92,0.00,OVC,,0.00,0.0,WeatherDisplay:10.37,2013-02-26 20:41:00,
2013-02-26 21:46:00,38.1,36.0,30.50,NE,54,5.8,8.0,92,0.00,OVC,,0.00,0.0,WeatherDisplay:10.37,2013-02-26 20:46:00,
2013-02-26 21:51:00,38.0,35.9,30.50,ENE,58,3.3,5.8,92,0.00,OVC,,0.00,0.0,WeatherDisplay:10.37,2013-02-26 20:51:00,
2013-02-26 21:56:00,38.0,35.9,30.50,NE,56,4.2,7.0,92,0.00,OVC,,0.00,0.0,WeatherDisplay:10.37,2013-02-26 20:56:00,
2013-02-26 22:01:00,37.9,35.8,30.50,ENE,65,6.7,8.1,92,0.00,OVC,,0.00,0.0,WeatherDisplay:10.37,2013-02-26 21:01:00,
2013-02-26 22:06:00,37.8,35.7,30.50,NE,38,7.2,11.5,92,0.00,OVC,,0.00,0.0,WeatherDisplay:10.37,2013-02-26 21:06:00,
2013-02-26 22:11:00,37.7,35.6,30.50,NNE,18,7.4,10.4,92,0.00,OVC,,0.00,0.0,WeatherDisplay:10.37,2013-02-26 21:11:00,
2013-02-26 22:16:00,37.6,35.5,30.50,NE,49,2.9,7.0,92,0.00,OVC,,0.00,0.0,WeatherDisplay:10.37,2013-02-26 21:16:00,
2013-02-26 22:21:00,37.5,35.4,30.50,NE,40,5.1,8.1,92,0.00,OVC,,0.00,0.0,WeatherDisplay:10.37,2013-02-26 21:21:00,
2013-02-26 22:26:00,37.4,35.5,30.50,NE,47,5.0,11.5,93,0.00,OVC,,0.00,0.0,WeatherDisplay:10.37,2013-02-26 21:26:00,
2013-02-26 22:31:00,37.2,35.3,30.50,NE,53,5.9,10.0,93,0.00,OVC,,0.00,0.0,WeatherDisplay:10.37,2013-02-26 21:31:00,
2013-02-26 22:36:00,37.1,35.2,30.50,NE,45,3.1,6.9,93,0.00,OVC,,0.00,0.0,WeatherDisplay:10.37,2013-02-26 21:36:00,
2013-02-26 22:41:00,37.1,35.2,30.50,NE,36,3.6,7.0,93,0.00,OVC,,0.00,0.0,WeatherDisplay:10.37,2013-02-26 21:41:00,
2013-02-26 22:46:00,37.1,35.2,30.50,NE,36,3.6,7.0,93,0.00,OVC,,0.00,0.0,WeatherDisplay:10.37,2013-02-26 21:46:00,
2013-02-26 22:51:00,37.1,35.2,30.50,NE,36,3.6,7.0,93,0.00,OVC,,0.00,0.0,WeatherDisplay:10.37,2013-02-26 21:51:00,
2013-02-26 22:57:00,37.1,35.2,30.50,NE,36,3.6,7.0,93,0.00,OVC,,0.00,0.0,WeatherDisplay:10.37,2013-02-26 21:57:00,
2013-02-26 23:05:00,37.1,35.2,30.50,NE,36,3.6,7.0,93,0.00,OVC,,0.00,0.0,WeatherDisplay:10.37,2013-02-26 22:05:00,
2013-02-26 23:10:00,37.1,35.2,30.50,NE,36,3.6,7.0,93,0.00,OVC,,0.00,0.0,WeatherDisplay:10.37,2013-02-26 22:10:00,
2013-02-26 23:32:00,37.1,35.2,30.50,NE,36,3.6,7.0,93,0.00,OVC,,0.00,0.0,WeatherDisplay:10.37,2013-02-26 22:32:00,
2013-02-26 23:37:00,37.1,35.2,30.50,NE,36,3.6,7.0,93,0.00,OVC,,0.00,0.0,WeatherDisplay:10.37,2013-02-26 22:37:00,
2013-02-26 23:42:00,37.1,35.2,30.50,NE,36,3.6,7.0,93,0.00,OVC,,0.00,0.0,WeatherDisplay:10.37,2013-02-26 22:42:00,
2013-02-26 23:50:00,35.3,34.0,30.50,ENE,57,7.1,10.0,95,0.00,OVC,,0.00,0.0,WeatherDisplay:10.37,2013-02-26 22:50:00,
2013-02-26 23:55:00,35.3,34.0,30.50,NE,39,5.3,10.4,95,0.00,OVC,,0.00,0.0,WeatherDisplay:10.37,2013-02-26 22:55:00,